createdAt,value
2022-09-26T00:01:37.762Z,17.55
2022-09-26T00:04:15.733Z,17.51
2022-09-26T00:06:43.592Z,17.46
2022-09-26T00:09:11.036Z,17.43
2022-09-26T00:11:38.674Z,17.38
2022-09-26T00:14:11.661Z,17.33
2022-09-26T00:16:38.959Z,17.28
2022-09-26T00:19:07.170Z,17.19
2022-09-26T00:21:34.543Z,17.12
2022-09-26T00:24:02.619Z,17.05
2022-09-26T00:26:31.727Z,16.97
2022-09-26T00:29:04.381Z,16.94
2022-09-26T00:31:35.627Z,16.89
2022-09-26T00:34:03.513Z,16.81
2022-09-26T00:36:37.876Z,16.78
2022-09-26T00:39:08.376Z,16.73
2022-09-26T00:41:37.164Z,16.67
2022-09-26T00:44:46.275Z,16.58
2022-09-26T00:47:32.885Z,16.53
2022-09-26T00:50:06.371Z,16.50
2022-09-26T00:52:46.972Z,16.45
2022-09-26T00:55:18.740Z,16.40
2022-09-26T00:57:53.328Z,16.36
2022-09-26T01:00:20.655Z,16.32
2022-09-26T01:02:48.626Z,16.29
2022-09-26T01:05:19.065Z,16.24
2022-09-26T01:07:46.228Z,16.23
2022-09-26T01:10:13.697Z,16.19
2022-09-26T01:12:40.598Z,16.14
2022-09-26T01:15:09.092Z,16.10
2022-09-26T01:17:39.258Z,16.06
2022-09-26T01:20:40.449Z,15.99
2022-09-26T01:23:49.132Z,15.94
2022-09-26T01:26:59.101Z,15.88
2022-09-26T01:30:01.912Z,15.84
2022-09-26T01:33:00.527Z,15.78
2022-09-26T01:36:15.287Z,15.73
2022-09-26T01:39:26.577Z,15.69
2022-09-26T01:42:52.569Z,15.64
2022-09-26T01:45:23.037Z,15.61
2022-09-26T01:48:03.991Z,15.59
2022-09-26T01:50:53.697Z,15.56
2022-09-26T01:53:48.892Z,15.53
2022-09-26T01:56:25.695Z,15.50
2022-09-26T01:59:05.579Z,15.47
2022-09-26T02:01:39.509Z,15.41
2022-09-26T02:04:12.449Z,15.43
2022-09-26T02:06:54.597Z,15.39
2022-09-26T02:09:39.503Z,15.36
2022-09-26T02:12:14.687Z,15.38
2022-09-26T02:14:44.836Z,15.35
2022-09-26T02:17:18.019Z,15.33
2022-09-26T02:20:01.810Z,15.32
2022-09-26T02:22:33.953Z,15.30
2022-09-26T02:25:02.757Z,15.30
2022-09-26T02:27:30.050Z,15.29
2022-09-26T02:29:57.563Z,15.27
2022-09-26T02:32:32.825Z,15.21
2022-09-26T02:35:01.365Z,15.23
2022-09-26T02:37:32.224Z,15.22
2022-09-26T02:39:59.112Z,15.22
2022-09-26T02:42:49.205Z,15.18
2022-09-26T02:45:41.172Z,15.14
2022-09-26T02:48:18.950Z,15.09
2022-09-26T02:51:40.645Z,15.04
2022-09-26T02:54:39.630Z,15.00
2022-09-26T02:57:34.852Z,14.95
2022-09-26T03:00:25.630Z,14.91
2022-09-26T03:03:14.014Z,14.87
2022-09-26T03:05:44.479Z,14.84
2022-09-26T03:08:26.057Z,14.75
2022-09-26T03:10:57.026Z,14.81
2022-09-26T03:13:25.839Z,14.78
2022-09-26T03:15:56.303Z,14.76
2022-09-26T03:18:36.807Z,14.74
2022-09-26T03:21:03.804Z,14.74
2022-09-26T03:23:31.161Z,14.72
2022-09-26T03:26:10.188Z,14.69
2022-09-26T03:28:42.629Z,14.67
2022-09-26T03:31:11.405Z,14.62
2022-09-26T03:33:49.609Z,14.59
2022-09-26T03:36:16.599Z,14.58
2022-09-26T03:38:43.557Z,14.57
2022-09-26T03:41:27.696Z,14.53
2022-09-26T03:44:13.367Z,14.50
2022-09-26T03:47:00.233Z,14.49
2022-09-26T03:49:27.405Z,14.46
2022-09-26T03:51:54.341Z,14.44
2022-09-26T03:54:21.221Z,14.39
2022-09-26T03:56:49.147Z,14.41
2022-09-26T03:59:17.016Z,14.40
2022-09-26T04:01:45.260Z,14.38
2022-09-26T04:04:15.214Z,14.36
2022-09-26T04:06:44.845Z,14.36
2022-09-26T04:09:16.734Z,14.35
2022-09-26T04:11:47.082Z,14.34
2022-09-26T04:14:14.009Z,14.33
2022-09-26T04:16:42.396Z,14.32
2022-09-26T04:19:17.090Z,14.27
2022-09-26T04:21:44.008Z,14.29
2022-09-26T04:24:15.842Z,14.26
2022-09-26T04:26:44.244Z,14.26
2022-09-26T04:29:11.651Z,14.24
2022-09-26T04:31:53.741Z,14.20
2022-09-26T04:34:27.395Z,14.24
2022-09-26T04:36:54.891Z,14.23
2022-09-26T04:39:22.225Z,14.18
2022-09-26T04:41:49.137Z,14.19
2022-09-26T04:44:16.109Z,14.17
2022-09-26T04:46:43.005Z,14.16
2022-09-26T04:49:11.241Z,14.14
2022-09-26T04:51:38.243Z,14.14
2022-09-26T04:54:05.425Z,14.13
2022-09-26T04:56:37.178Z,14.14
2022-09-26T04:59:05.737Z,14.12
2022-09-26T05:01:42.224Z,14.11
2022-09-26T05:04:16.982Z,14.11
2022-09-26T05:06:43.854Z,14.12
2022-09-26T05:09:21.900Z,14.13
2022-09-26T05:11:53.941Z,14.14
2022-09-26T05:14:20.923Z,14.15
2022-09-26T05:16:49.297Z,14.17
2022-09-26T05:19:17.350Z,14.15
2022-09-26T05:22:04.402Z,14.13
2022-09-26T05:24:49.579Z,14.11
2022-09-26T05:27:18.924Z,14.10
2022-09-26T05:29:45.888Z,14.08
2022-09-26T05:32:13.826Z,14.02
2022-09-26T05:34:42.530Z,14.05
2022-09-26T05:37:13.976Z,14.04
2022-09-26T05:39:59.899Z,14.09
2022-09-26T05:42:27.894Z,14.08
2022-09-26T05:44:54.797Z,14.09
2022-09-26T05:47:21.886Z,14.10
2022-09-26T05:49:48.911Z,14.13
2022-09-26T05:52:19.022Z,14.13
2022-09-26T05:54:46.137Z,14.17
2022-09-26T05:57:53.125Z,14.18
2022-09-26T06:00:22.337Z,14.20
2022-09-26T06:02:56.519Z,14.21
2022-09-26T06:05:33.603Z,14.14
2022-09-26T06:08:17.407Z,14.26
2022-09-26T06:11:15.418Z,14.29
2022-09-26T06:13:45.550Z,14.32
2022-09-26T06:16:20.215Z,14.39
2022-09-26T06:18:50.545Z,14.45
2022-09-26T06:21:20.127Z,14.52
2022-09-26T06:23:50.769Z,14.61
2022-09-26T06:26:23.556Z,14.71
2022-09-26T06:29:00.025Z,14.81
2022-09-26T06:31:30.237Z,14.89
2022-09-26T06:34:29.184Z,14.97
2022-09-26T06:37:18.956Z,15.06
2022-09-26T06:39:45.892Z,15.11
2022-09-26T06:42:13.072Z,15.15
2022-09-26T06:45:10.561Z,15.19
2022-09-26T06:48:02.399Z,15.23
2022-09-26T06:50:32.567Z,15.29
2022-09-26T06:53:10.873Z,15.33
2022-09-26T06:55:37.963Z,15.39
2022-09-26T06:58:04.915Z,15.43
2022-09-26T07:00:46.718Z,15.48
2022-09-26T07:03:28.654Z,15.50
2022-09-26T07:06:01.893Z,15.58
2022-09-26T07:08:57.467Z,15.61
2022-09-26T07:14:06.000Z,15.67
2022-09-26T07:16:33.224Z,15.74
2022-09-26T07:19:19.270Z,15.82
2022-09-26T07:22:01.688Z,15.88
2022-09-26T07:24:46.296Z,15.98
2022-09-26T07:27:14.129Z,16.09
2022-09-26T07:29:41.363Z,16.20
2022-09-26T07:32:08.286Z,16.30
2022-09-26T07:34:53.730Z,16.37
2022-09-26T07:37:20.653Z,16.46
2022-09-26T07:39:52.639Z,16.54
2022-09-26T07:42:21.697Z,16.57
2022-09-26T07:47:54.312Z,16.74
2022-09-26T07:50:47.110Z,16.80
2022-09-26T07:53:24.222Z,16.85
2022-09-26T07:56:16.800Z,16.88
2022-09-26T07:58:58.190Z,16.92
2022-09-26T08:01:54.517Z,16.97
2022-09-26T08:04:31.543Z,17.02
2022-09-26T08:06:59.513Z,17.06
2022-09-26T08:09:26.496Z,17.12
2022-09-26T08:12:11.857Z,17.14
2022-09-26T08:14:49.881Z,17.17
2022-09-26T08:17:25.957Z,17.26
2022-09-26T08:19:52.837Z,17.31
2022-09-26T08:22:19.996Z,17.35
2022-09-26T08:24:50.937Z,17.38
2022-09-26T08:27:35.457Z,17.37
2022-09-26T08:30:02.857Z,17.44
2022-09-26T08:32:32.246Z,17.46
2022-09-26T08:35:00.052Z,17.46
2022-09-26T08:37:32.956Z,17.54
2022-09-26T08:40:20.567Z,17.58
2022-09-26T08:43:46.452Z,17.60
2022-09-26T08:47:05.165Z,17.63
2022-09-26T08:50:15.065Z,17.68
2022-09-26T08:52:58.112Z,17.74
2022-09-26T08:55:32.825Z,17.75
2022-09-26T08:58:04.315Z,17.86
2022-09-26T09:00:34.675Z,17.91
2022-09-26T09:03:21.075Z,17.97
2022-09-26T09:06:07.955Z,18.04
2022-09-26T09:08:48.533Z,18.10
2022-09-26T09:12:02.473Z,18.16
2022-09-26T09:15:07.601Z,18.22
2022-09-26T09:18:19.585Z,18.29
2022-09-26T09:22:01.725Z,18.37
2022-09-26T09:24:59.521Z,18.40
2022-09-26T09:28:03.936Z,18.43
2022-09-26T09:30:56.235Z,18.51
2022-09-26T09:33:50.277Z,18.61
2022-09-26T09:36:57.071Z,18.66
2022-09-26T09:39:49.324Z,18.74
2022-09-26T09:42:34.976Z,18.77
2022-09-26T09:45:31.078Z,18.86
2022-09-26T09:47:58.199Z,18.92
2022-09-26T09:51:14.064Z,18.98
2022-09-26T09:54:31.654Z,19.04
2022-09-26T09:57:26.590Z,19.04
2022-09-26T10:00:19.442Z,19.11
2022-09-26T10:03:27.425Z,19.14
2022-09-26T10:06:01.360Z,19.26
2022-09-26T10:08:41.591Z,19.35
2022-09-26T10:11:41.461Z,19.47
2022-09-26T10:14:46.395Z,19.45
2022-09-26T10:17:31.923Z,19.53
2022-09-26T10:20:41.192Z,19.54
2022-09-26T10:23:31.156Z,19.58
2022-09-26T10:26:05.397Z,19.60
2022-09-26T10:28:49.657Z,19.65
2022-09-26T10:31:29.512Z,19.71
2022-09-26T10:34:31.662Z,19.78
2022-09-26T10:37:25.945Z,19.87
2022-09-26T10:40:20.429Z,19.96
2022-09-26T10:42:47.405Z,20.01
2022-09-26T10:45:27.113Z,20.09
2022-09-26T10:48:37.624Z,20.16
2022-09-26T10:51:45.416Z,20.24
2022-09-26T10:54:18.740Z,20.38
2022-09-26T10:56:54.233Z,20.42
2022-09-26T10:59:31.441Z,20.50
2022-09-26T11:01:59.437Z,20.54
2022-09-26T11:04:48.316Z,20.53
2022-09-26T11:07:39.800Z,20.54
2022-09-26T11:10:25.838Z,20.52
2022-09-26T11:13:18.707Z,20.57
2022-09-26T11:16:02.120Z,20.62
2022-09-26T11:18:46.017Z,20.64
2022-09-26T11:21:35.098Z,20.68
2022-09-26T11:24:37.310Z,20.77
2022-09-26T11:27:34.684Z,20.83
2022-09-26T11:30:20.846Z,20.90
2022-09-26T11:32:57.987Z,20.99
2022-09-26T11:36:29.459Z,21.04
2022-09-26T11:38:57.864Z,21.08
2022-09-26T11:41:48.802Z,21.14
2022-09-26T11:44:33.661Z,21.21
2022-09-26T11:48:06.662Z,21.19
2022-09-26T11:51:36.676Z,21.15
2022-09-26T11:54:33.388Z,21.18
2022-09-26T11:57:49.269Z,21.20
2022-09-26T12:00:27.286Z,21.21
2022-09-26T12:03:46.816Z,21.23
2022-09-26T12:06:55.965Z,21.21
2022-09-26T12:09:37.252Z,21.19
2022-09-26T12:12:15.883Z,21.16
2022-09-26T12:15:12.792Z,21.17
2022-09-26T12:18:15.773Z,21.20
2022-09-26T12:21:12.494Z,21.25
2022-09-26T12:23:54.483Z,21.28
2022-09-26T12:26:44.269Z,21.28
2022-09-26T12:29:24.554Z,21.30
2022-09-26T12:32:24.715Z,21.30
2022-09-26T12:35:04.094Z,21.24
2022-09-26T12:38:07.061Z,21.33
2022-09-26T12:40:53.378Z,21.33
2022-09-26T12:44:33.968Z,21.29
2022-09-26T12:47:26.893Z,21.33
2022-09-26T12:50:15.956Z,21.35
2022-09-26T12:53:14.000Z,21.42
2022-09-26T12:55:55.560Z,21.53
2022-09-26T12:58:58.982Z,21.56
2022-09-26T13:01:44.969Z,21.54
2022-09-26T13:04:59.142Z,21.49
2022-09-26T13:07:45.130Z,21.45
2022-09-26T13:10:36.529Z,21.43
2022-09-26T13:13:38.972Z,21.46
2022-09-26T13:17:05.866Z,21.45
2022-09-26T13:19:53.278Z,21.48
2022-09-26T13:22:41.264Z,21.46
2022-09-26T13:25:11.088Z,21.50
2022-09-26T13:27:57.928Z,21.54
2022-09-26T13:30:35.636Z,21.64
2022-09-26T13:33:29.957Z,21.73
2022-09-26T13:35:59.456Z,21.77
2022-09-26T13:38:53.373Z,21.85
2022-09-26T13:41:53.931Z,21.96
2022-09-26T13:44:29.552Z,22.03
2022-09-26T13:47:07.618Z,22.08
2022-09-26T13:49:58.602Z,22.11
2022-09-26T13:52:52.326Z,22.12
2022-09-26T13:55:21.829Z,22.11
2022-09-26T13:58:03.614Z,22.09
2022-09-26T14:00:30.393Z,22.08
2022-09-26T14:03:18.471Z,22.05
2022-09-26T14:05:49.201Z,22.03
2022-09-26T14:08:43.480Z,21.98
2022-09-26T14:11:34.206Z,21.94
2022-09-26T14:14:19.133Z,21.91
2022-09-26T14:16:47.939Z,21.92
2022-09-26T14:19:41.222Z,21.90
2022-09-26T14:22:20.673Z,21.90
2022-09-26T14:24:48.783Z,21.82
2022-09-26T14:27:28.831Z,21.81
2022-09-26T14:30:29.243Z,21.75
2022-09-26T14:33:02.670Z,21.70
2022-09-26T14:35:35.403Z,21.68
2022-09-26T14:38:15.415Z,21.64
2022-09-26T14:40:56.167Z,21.63
2022-09-26T14:43:28.135Z,21.62
2022-09-26T14:46:13.956Z,21.60
2022-09-26T14:48:43.133Z,21.57
2022-09-26T14:51:15.572Z,21.56
2022-09-26T14:53:48.374Z,21.55
2022-09-26T14:56:32.449Z,21.54
2022-09-26T14:59:39.939Z,21.55
2022-09-26T15:02:27.996Z,21.53
2022-09-26T15:05:09.689Z,21.52
2022-09-26T15:07:47.034Z,21.51
2022-09-26T15:10:13.860Z,21.52
2022-09-26T15:12:50.008Z,21.49
2022-09-26T15:15:47.261Z,21.44
2022-09-26T15:18:28.214Z,21.41
2022-09-26T15:21:04.749Z,21.42
2022-09-26T15:23:34.667Z,21.47
2022-09-26T15:26:02.792Z,21.50
2022-09-26T15:28:34.482Z,21.51
2022-09-26T15:31:22.614Z,21.49
2022-09-26T15:34:04.364Z,21.50
2022-09-26T15:36:34.460Z,21.50
2022-09-26T15:39:25.140Z,21.47
2022-09-26T15:42:10.228Z,21.45
2022-09-26T15:44:46.127Z,21.34
2022-09-26T15:47:29.188Z,21.34
2022-09-26T15:50:12.302Z,21.29
2022-09-26T15:52:49.244Z,21.26
2022-09-26T15:55:20.975Z,21.23
2022-09-26T15:57:51.839Z,21.19
2022-09-26T16:00:19.240Z,21.17
2022-09-26T16:02:47.009Z,21.14
2022-09-26T16:05:14.975Z,21.11
2022-09-26T16:07:49.171Z,21.09
2022-09-26T16:10:28.495Z,20.98
2022-09-26T16:12:58.245Z,20.98
2022-09-26T16:15:29.728Z,20.93
2022-09-26T16:17:58.669Z,20.91
2022-09-26T16:20:31.658Z,20.85
2022-09-26T16:23:04.743Z,20.81
2022-09-26T16:25:47.567Z,20.81
2022-09-26T16:28:15.604Z,20.80
2022-09-26T16:30:45.694Z,20.76
2022-09-26T16:33:32.320Z,20.72
2022-09-26T16:36:24.411Z,20.68
2022-09-26T16:39:03.771Z,20.66
2022-09-26T16:44:40.308Z,20.58
2022-09-26T16:47:42.879Z,20.52
2022-09-26T16:50:31.162Z,20.47
2022-09-26T16:52:58.250Z,20.45
2022-09-26T16:55:26.347Z,20.39
2022-09-26T16:58:02.057Z,20.35
2022-09-26T17:00:52.589Z,20.32
2022-09-26T17:03:31.032Z,20.26
2022-09-26T17:05:59.982Z,20.26
2022-09-26T17:08:28.250Z,20.23
2022-09-26T17:11:00.216Z,20.20
2022-09-26T17:13:31.013Z,20.17
2022-09-26T17:16:01.033Z,20.13
2022-09-26T17:18:29.366Z,20.08
2022-09-26T17:20:58.868Z,20.05
2022-09-26T17:23:42.306Z,20.02
2022-09-26T17:26:19.784Z,19.96
2022-09-26T17:28:46.850Z,19.93
2022-09-26T17:31:19.932Z,19.91
2022-09-26T17:33:51.459Z,19.90
2022-09-26T17:36:29.283Z,19.88
2022-09-26T17:38:59.402Z,19.77
2022-09-26T17:41:27.821Z,19.84
2022-09-26T17:44:00.965Z,19.82
2022-09-26T17:46:28.810Z,19.82
2022-09-26T17:48:56.349Z,19.79
2022-09-26T17:51:24.278Z,19.79
2022-09-26T17:53:52.197Z,19.75
2022-09-26T17:56:20.188Z,19.79
2022-09-26T17:58:48.800Z,19.78
2022-09-26T18:01:30.337Z,19.76
2022-09-26T18:04:03.824Z,19.74
2022-09-26T18:06:32.870Z,19.75
2022-09-26T18:09:10.137Z,19.74
2022-09-26T18:11:38.348Z,19.73
2022-09-26T18:14:06.810Z,19.72
2022-09-26T18:16:33.743Z,19.70
2022-09-26T18:19:04.696Z,19.72
2022-09-26T18:21:34.907Z,19.71
2022-09-26T18:24:06.389Z,19.70
2022-09-26T18:26:42.224Z,19.68
2022-09-26T18:29:13.501Z,19.66
2022-09-26T18:31:41.645Z,19.64
2022-09-26T18:34:19.883Z,19.67
2022-09-26T18:36:48.869Z,19.63
2022-09-26T18:39:15.940Z,19.65
2022-09-26T18:41:45.016Z,19.64
2022-09-26T18:44:20.195Z,19.63
2022-09-26T18:46:49.023Z,19.64
2022-09-26T18:49:17.393Z,19.64
2022-09-26T18:51:45.802Z,19.63
2022-09-26T18:54:16.153Z,19.61
2022-09-26T18:57:09.316Z,19.61
2022-09-26T18:59:36.194Z,19.52
2022-09-26T19:02:04.762Z,19.57
2022-09-26T19:04:32.335Z,19.57
2022-09-26T19:07:01.454Z,19.54
2022-09-26T19:09:34.363Z,19.50
2022-09-26T19:12:02.465Z,19.53
2022-09-26T19:14:31.129Z,19.54
2022-09-26T19:16:58.421Z,19.50
2022-09-26T19:19:26.662Z,19.51
2022-09-26T19:22:11.732Z,19.49
2022-09-26T19:24:50.548Z,19.43
2022-09-26T19:27:23.774Z,19.45
2022-09-26T19:30:01.960Z,19.43
2022-09-26T19:32:45.055Z,19.41
2022-09-26T19:35:17.000Z,19.40
2022-09-26T19:37:43.870Z,19.39
2022-09-26T19:40:16.413Z,19.36
2022-09-26T19:42:43.404Z,19.35
2022-09-26T19:45:12.960Z,19.36
2022-09-26T19:47:43.546Z,19.36
2022-09-26T19:50:19.770Z,19.35
2022-09-26T19:52:47.623Z,19.33
2022-09-26T19:55:18.801Z,19.30
2022-09-26T19:57:45.729Z,19.30
2022-09-26T20:00:15.691Z,19.28
2022-09-26T20:02:42.791Z,19.27
2022-09-26T20:05:20.261Z,19.25
2022-09-26T20:07:47.695Z,19.24
2022-09-26T20:10:21.612Z,19.22
2022-09-26T20:12:48.630Z,19.17
2022-09-26T20:15:18.015Z,19.18
2022-09-26T20:17:45.857Z,19.16
2022-09-26T20:20:20.349Z,19.08
2022-09-26T20:22:47.508Z,19.13
2022-09-26T20:25:25.847Z,19.11
2022-09-26T20:27:54.388Z,19.10
2022-09-26T20:30:39.810Z,19.07
2022-09-26T20:33:07.161Z,18.99
2022-09-26T20:35:38.228Z,18.94
2022-09-26T20:38:07.980Z,18.94
2022-09-26T20:40:35.619Z,18.91
2022-09-26T20:43:10.205Z,18.84
2022-09-26T20:45:40.833Z,18.82
2022-09-26T20:48:17.297Z,18.78
2022-09-26T20:50:44.440Z,18.74
2022-09-26T20:53:29.543Z,18.68
2022-09-26T20:55:56.457Z,18.66
2022-09-26T20:58:23.935Z,18.61
2022-09-26T21:00:52.948Z,18.56
2022-09-26T21:03:25.088Z,18.55
2022-09-26T21:05:52.308Z,18.51
2022-09-26T21:08:28.968Z,18.48
2022-09-26T21:10:56.378Z,18.45
2022-09-26T21:13:23.595Z,18.42
2022-09-26T21:15:52.372Z,18.39
2022-09-26T21:18:29.225Z,18.37
2022-09-26T21:21:04.374Z,18.35
2022-09-26T21:23:54.646Z,18.32
2022-09-26T21:26:25.130Z,18.31
2022-09-26T21:28:53.733Z,18.31
2022-09-26T21:31:31.627Z,18.28
2022-09-26T21:34:00.209Z,18.27
2022-09-26T21:36:35.440Z,18.25
2022-09-26T21:39:02.479Z,18.20
2022-09-26T21:41:29.865Z,18.21
2022-09-26T21:44:02.723Z,18.18
2022-09-26T21:46:29.652Z,18.17
2022-09-26T21:48:56.542Z,18.14
2022-09-26T21:51:27.587Z,18.14
2022-09-26T21:54:34.647Z,18.11
2022-09-26T21:57:13.097Z,18.09
2022-09-26T21:59:40.860Z,18.09
2022-09-26T22:02:07.816Z,18.03
2022-09-26T22:04:34.916Z,18.05
2022-09-26T22:07:02.048Z,18.04
2022-09-26T22:09:28.941Z,18.04
2022-09-26T22:11:55.794Z,18.04
2022-09-26T22:14:22.667Z,18.02
2022-09-26T22:16:49.625Z,18.04
2022-09-26T22:19:16.934Z,18.00
2022-09-26T22:21:43.902Z,18.03
2022-09-26T22:24:11.133Z,18.02
2022-09-26T22:26:38.029Z,18.01
2022-09-26T22:29:05.150Z,18.01
2022-09-26T22:31:32.039Z,18.01
2022-09-26T22:34:00.097Z,17.93
2022-09-26T22:36:27.725Z,17.98
2022-09-26T22:38:54.857Z,17.99
2022-09-26T22:41:21.920Z,17.99
2022-09-26T22:43:49.283Z,17.98
2022-09-26T22:46:16.423Z,17.98
2022-09-26T22:48:46.782Z,17.96
2022-09-26T22:51:15.763Z,17.98
2022-09-26T22:53:44.455Z,17.98
2022-09-26T22:56:14.897Z,17.96
2022-09-26T22:58:49.248Z,17.99
2022-09-26T23:01:23.975Z,17.98
2022-09-26T23:03:54.633Z,17.99
2022-09-26T23:06:23.074Z,17.98
2022-09-26T23:08:50.915Z,17.99
2022-09-26T23:11:18.363Z,17.99
2022-09-26T23:13:46.351Z,17.99
2022-09-26T23:16:17.168Z,18.00
2022-09-26T23:18:44.767Z,18.03
2022-09-26T23:21:14.920Z,18.03
2022-09-26T23:23:51.032Z,18.02
2022-09-26T23:26:30.218Z,18.01
2022-09-26T23:28:58.395Z,18.00
2022-09-26T23:31:27.550Z,17.99
2022-09-26T23:33:55.016Z,17.98
2022-09-26T23:36:22.485Z,17.98
2022-09-26T23:38:49.921Z,17.97
2022-09-26T23:41:17.103Z,17.96
2022-09-26T23:43:46.246Z,17.93
2022-09-26T23:46:13.243Z,17.91
2022-09-26T23:48:40.404Z,17.90
2022-09-26T23:51:07.859Z,17.88
2022-09-26T23:53:35.386Z,17.87
2022-09-26T23:56:06.852Z,17.82
2022-09-26T23:58:34.224Z,17.81
